<?xml version="1.0" encoding="UTF-8" standalone="no" ?>
<gpx xmlns="http://www.topografix.com/GPX/1/1" xmlns:xsi="http://www.w3.org/2001/XMLSchema-instance" xsi:schemaLocation="http://www.topografix.com/GPX/1/1 http://www.topografix.com/GPX/1/1/gpx.xsd" version="1.1" creator="VisuGPX - https://www.visugpx.com">
  <metadata>
    <name>Belley / Roche Percée6</name>
    <desc><![CDATA[Ain - Bugey.
Boucle au départ de Belley.
Passage aux Eplantaz, Bognens, Bois des Cornes, Le Trappon, Lac d'Armaille, la Roche Percée, Fontaine Vallin, Thoys, Vieugey.]]></desc>
  </metadata>
  <trk>
    <name><![CDATA[13896745-Belley / Roche Percée6]]></name>
    <extensions>
      <line xmlns="http://www.topografix.com/GPX/gpx_style/0/2">
        <color>0000FF</color>
        <width>4</width>
      </line>
    </extensions>
    <trkseg>
      <trkpt lat="45.758" lon="5.68936">
        <ele>281</ele>
        <time>2022-04-07T07:53:58Z</time>
      </trkpt>
      <trkpt lat="45.75828" lon="5.68874">
        <ele>280</ele>
        <time>2022-04-07T07:54:10Z</time>
      </trkpt>
      <trkpt lat="45.75836" lon="5.68863">
        <ele>280</ele>
        <time>2022-04-07T07:54:13Z</time>
      </trkpt>
      <trkpt lat="45.75743" lon="5.68791">
        <ele>280</ele>
        <time>2022-04-07T07:54:37Z</time>
      </trkpt>
      <trkpt lat="45.75706" lon="5.68767">
        <ele>281</ele>
        <time>2022-04-07T07:54:47Z</time>
      </trkpt>
      <trkpt lat="45.75697" lon="5.68765">
        <ele>282</ele>
        <time>2022-04-07T07:54:49Z</time>
      </trkpt>
      <trkpt lat="45.75689" lon="5.6876">
        <ele>282</ele>
        <time>2022-04-07T07:54:51Z</time>
      </trkpt>
      <trkpt lat="45.75658" lon="5.6873">
        <ele>283</ele>
        <time>2022-04-07T07:55:00Z</time>
      </trkpt>
      <trkpt lat="45.75595" lon="5.6866">
        <ele>287</ele>
        <time>2022-04-07T07:55:18Z</time>
      </trkpt>
      <trkpt lat="45.75559" lon="5.68519">
        <ele>289</ele>
        <time>2022-04-07T07:55:43Z</time>
      </trkpt>
      <trkpt lat="45.75551" lon="5.68475">
        <ele>289</ele>
        <time>2022-04-07T07:55:50Z</time>
      </trkpt>
      <trkpt lat="45.75563" lon="5.68397">
        <ele>288</ele>
        <time>2022-04-07T07:56:03Z</time>
      </trkpt>
      <trkpt lat="45.75567" lon="5.68383">
        <ele>288</ele>
        <time>2022-04-07T07:56:06Z</time>
      </trkpt>
      <trkpt lat="45.75579" lon="5.68372">
        <ele>287</ele>
        <time>2022-04-07T07:56:09Z</time>
      </trkpt>
      <trkpt lat="45.75581" lon="5.68364">
        <ele>287</ele>
        <time>2022-04-07T07:56:10Z</time>
      </trkpt>
      <trkpt lat="45.75575" lon="5.68357">
        <ele>287</ele>
        <time>2022-04-07T07:56:12Z</time>
      </trkpt>
      <trkpt lat="45.75573" lon="5.68348">
        <ele>287</ele>
        <time>2022-04-07T07:56:14Z</time>
      </trkpt>
      <trkpt lat="45.75601" lon="5.68172">
        <ele>289</ele>
        <time>2022-04-07T07:56:43Z</time>
      </trkpt>
      <trkpt lat="45.75617" lon="5.68118">
        <ele>288</ele>
        <time>2022-04-07T07:56:53Z</time>
      </trkpt>
      <trkpt lat="45.75628" lon="5.68094">
        <ele>288</ele>
        <time>2022-04-07T07:56:57Z</time>
      </trkpt>
      <trkpt lat="45.7567" lon="5.68036">
        <ele>285</ele>
        <time>2022-04-07T07:57:11Z</time>
      </trkpt>
      <trkpt lat="45.75749" lon="5.67882">
        <ele>289</ele>
        <time>2022-04-07T07:57:42Z</time>
      </trkpt>
      <trkpt lat="45.75767" lon="5.67854">
        <ele>291</ele>
        <time>2022-04-07T07:57:48Z</time>
      </trkpt>
      <trkpt lat="45.75777" lon="5.67844">
        <ele>292</ele>
        <time>2022-04-07T07:57:51Z</time>
      </trkpt>
      <trkpt lat="45.7576" lon="5.67801">
        <ele>292</ele>
        <time>2022-04-07T07:57:59Z</time>
      </trkpt>
      <trkpt lat="45.75754" lon="5.67779">
        <ele>292</ele>
        <time>2022-04-07T07:58:03Z</time>
      </trkpt>
      <trkpt lat="45.75744" lon="5.67713">
        <ele>294</ele>
        <time>2022-04-07T07:58:14Z</time>
      </trkpt>
      <trkpt lat="45.75743" lon="5.67672">
        <ele>297</ele>
        <time>2022-04-07T07:58:21Z</time>
      </trkpt>
      <trkpt lat="45.75759" lon="5.67607">
        <ele>300</ele>
        <time>2022-04-07T07:58:32Z</time>
      </trkpt>
      <trkpt lat="45.7577" lon="5.67579">
        <ele>300</ele>
        <time>2022-04-07T07:58:37Z</time>
      </trkpt>
      <trkpt lat="45.75782" lon="5.67535">
        <ele>298</ele>
        <time>2022-04-07T07:58:45Z</time>
      </trkpt>
      <trkpt lat="45.75782" lon="5.6749">
        <ele>294</ele>
        <time>2022-04-07T07:58:52Z</time>
      </trkpt>
      <trkpt lat="45.75785" lon="5.67463">
        <ele>291</ele>
        <time>2022-04-07T07:58:57Z</time>
      </trkpt>
      <trkpt lat="45.75783" lon="5.67449">
        <ele>290</ele>
        <time>2022-04-07T07:58:59Z</time>
      </trkpt>
      <trkpt lat="45.75778" lon="5.67439">
        <ele>289</ele>
        <time>2022-04-07T07:59:01Z</time>
      </trkpt>
      <trkpt lat="45.75769" lon="5.67432">
        <ele>288</ele>
        <time>2022-04-07T07:59:03Z</time>
      </trkpt>
      <trkpt lat="45.75701" lon="5.67391">
        <ele>283</ele>
        <time>2022-04-07T07:59:21Z</time>
      </trkpt>
      <trkpt lat="45.75687" lon="5.67379">
        <ele>282</ele>
        <time>2022-04-07T07:59:24Z</time>
      </trkpt>
      <trkpt lat="45.75738" lon="5.67301">
        <ele>278</ele>
        <time>2022-04-07T07:59:42Z</time>
      </trkpt>
      <trkpt lat="45.75752" lon="5.67271">
        <ele>277</ele>
        <time>2022-04-07T07:59:48Z</time>
      </trkpt>
      <trkpt lat="45.75767" lon="5.67224">
        <ele>276</ele>
        <time>2022-04-07T07:59:56Z</time>
      </trkpt>
      <trkpt lat="45.75784" lon="5.67182">
        <ele>276</ele>
        <time>2022-04-07T08:00:04Z</time>
      </trkpt>
      <trkpt lat="45.75802" lon="5.67122">
        <ele>274</ele>
        <time>2022-04-07T08:00:15Z</time>
      </trkpt>
      <trkpt lat="45.75837" lon="5.66956">
        <ele>267</ele>
        <time>2022-04-07T08:00:43Z</time>
      </trkpt>
      <trkpt lat="45.75842" lon="5.66921">
        <ele>266</ele>
        <time>2022-04-07T08:00:49Z</time>
      </trkpt>
      <trkpt lat="45.75842" lon="5.66904">
        <ele>266</ele>
        <time>2022-04-07T08:00:52Z</time>
      </trkpt>
      <trkpt lat="45.75847" lon="5.66885">
        <ele>266</ele>
        <time>2022-04-07T08:00:55Z</time>
      </trkpt>
      <trkpt lat="45.75853" lon="5.66842">
        <ele>266</ele>
        <time>2022-04-07T08:01:02Z</time>
      </trkpt>
      <trkpt lat="45.75867" lon="5.66703">
        <ele>266</ele>
        <time>2022-04-07T08:01:25Z</time>
      </trkpt>
      <trkpt lat="45.75896" lon="5.66622">
        <ele>262</ele>
        <time>2022-04-07T08:01:40Z</time>
      </trkpt>
      <trkpt lat="45.75923" lon="5.66437">
        <ele>246</ele>
        <time>2022-04-07T08:02:11Z</time>
      </trkpt>
      <trkpt lat="45.75924" lon="5.66419">
        <ele>245</ele>
        <time>2022-04-07T08:02:14Z</time>
      </trkpt>
      <trkpt lat="45.75922" lon="5.66404">
        <ele>244</ele>
        <time>2022-04-07T08:02:16Z</time>
      </trkpt>
      <trkpt lat="45.75929" lon="5.66383">
        <ele>242</ele>
        <time>2022-04-07T08:02:20Z</time>
      </trkpt>
      <trkpt lat="45.75949" lon="5.66293">
        <ele>236</ele>
        <time>2022-04-07T08:02:35Z</time>
      </trkpt>
      <trkpt lat="45.75987" lon="5.6611">
        <ele>232</ele>
        <time>2022-04-07T08:03:06Z</time>
      </trkpt>
      <trkpt lat="45.75991" lon="5.66075">
        <ele>231</ele>
        <time>2022-04-07T08:03:12Z</time>
      </trkpt>
      <trkpt lat="45.75988" lon="5.65992">
        <ele>230</ele>
        <time>2022-04-07T08:03:26Z</time>
      </trkpt>
      <trkpt lat="45.75988" lon="5.65951">
        <ele>229</ele>
        <time>2022-04-07T08:03:32Z</time>
      </trkpt>
      <trkpt lat="45.75991" lon="5.65928">
        <ele>228</ele>
        <time>2022-04-07T08:03:36Z</time>
      </trkpt>
      <trkpt lat="45.7601" lon="5.65858">
        <ele>228</ele>
        <time>2022-04-07T08:03:48Z</time>
      </trkpt>
      <trkpt lat="45.76036" lon="5.65793">
        <ele>228</ele>
        <time>2022-04-07T08:04:01Z</time>
      </trkpt>
      <trkpt lat="45.76052" lon="5.65741">
        <ele>227</ele>
        <time>2022-04-07T08:04:10Z</time>
      </trkpt>
      <trkpt lat="45.76055" lon="5.65707">
        <ele>227</ele>
        <time>2022-04-07T08:04:15Z</time>
      </trkpt>
      <trkpt lat="45.76087" lon="5.6551">
        <ele>231</ele>
        <time>2022-04-07T08:04:48Z</time>
      </trkpt>
      <trkpt lat="45.76095" lon="5.65485">
        <ele>232</ele>
        <time>2022-04-07T08:04:53Z</time>
      </trkpt>
      <trkpt lat="45.76113" lon="5.65465">
        <ele>232</ele>
        <time>2022-04-07T08:04:58Z</time>
      </trkpt>
      <trkpt lat="45.76152" lon="5.65446">
        <ele>233</ele>
        <time>2022-04-07T08:05:08Z</time>
      </trkpt>
      <trkpt lat="45.76265" lon="5.65405">
        <ele>238</ele>
        <time>2022-04-07T08:05:35Z</time>
      </trkpt>
      <trkpt lat="45.7628" lon="5.65396">
        <ele>240</ele>
        <time>2022-04-07T08:05:39Z</time>
      </trkpt>
      <trkpt lat="45.76291" lon="5.65386">
        <ele>241</ele>
        <time>2022-04-07T08:05:42Z</time>
      </trkpt>
      <trkpt lat="45.763" lon="5.65371">
        <ele>243</ele>
        <time>2022-04-07T08:05:45Z</time>
      </trkpt>
      <trkpt lat="45.76303" lon="5.65345">
        <ele>246</ele>
        <time>2022-04-07T08:05:49Z</time>
      </trkpt>
      <trkpt lat="45.76298" lon="5.65329">
        <ele>248</ele>
        <time>2022-04-07T08:05:52Z</time>
      </trkpt>
      <trkpt lat="45.76221" lon="5.6524">
        <ele>259</ele>
        <time>2022-04-07T08:06:15Z</time>
      </trkpt>
      <trkpt lat="45.76193" lon="5.65199">
        <ele>261</ele>
        <time>2022-04-07T08:06:25Z</time>
      </trkpt>
      <trkpt lat="45.76187" lon="5.65187">
        <ele>262</ele>
        <time>2022-04-07T08:06:27Z</time>
      </trkpt>
      <trkpt lat="45.76184" lon="5.65174">
        <ele>263</ele>
        <time>2022-04-07T08:06:29Z</time>
      </trkpt>
      <trkpt lat="45.7619" lon="5.65093">
        <ele>269</ele>
        <time>2022-04-07T08:06:43Z</time>
      </trkpt>
      <trkpt lat="45.76207" lon="5.65051">
        <ele>274</ele>
        <time>2022-04-07T08:06:50Z</time>
      </trkpt>
      <trkpt lat="45.76211" lon="5.65034">
        <ele>276</ele>
        <time>2022-04-07T08:06:53Z</time>
      </trkpt>
      <trkpt lat="45.76203" lon="5.64984">
        <ele>280</ele>
        <time>2022-04-07T08:07:02Z</time>
      </trkpt>
      <trkpt lat="45.76204" lon="5.64935">
        <ele>284</ele>
        <time>2022-04-07T08:07:10Z</time>
      </trkpt>
      <trkpt lat="45.76212" lon="5.64916">
        <ele>285</ele>
        <time>2022-04-07T08:07:13Z</time>
      </trkpt>
      <trkpt lat="45.76224" lon="5.64906">
        <ele>286</ele>
        <time>2022-04-07T08:07:17Z</time>
      </trkpt>
      <trkpt lat="45.76268" lon="5.64879">
        <ele>287</ele>
        <time>2022-04-07T08:07:28Z</time>
      </trkpt>
      <trkpt lat="45.76286" lon="5.64894">
        <ele>286</ele>
        <time>2022-04-07T08:07:33Z</time>
      </trkpt>
      <trkpt lat="45.76299" lon="5.64902">
        <ele>286</ele>
        <time>2022-04-07T08:07:36Z</time>
      </trkpt>
      <trkpt lat="45.76309" lon="5.64905">
        <ele>286</ele>
        <time>2022-04-07T08:07:38Z</time>
      </trkpt>
      <trkpt lat="45.76347" lon="5.6491">
        <ele>288</ele>
        <time>2022-04-07T08:07:47Z</time>
      </trkpt>
      <trkpt lat="45.76402" lon="5.64905">
        <ele>293</ele>
        <time>2022-04-07T08:08:00Z</time>
      </trkpt>
      <trkpt lat="45.76449" lon="5.6486">
        <ele>294</ele>
        <time>2022-04-07T08:08:13Z</time>
      </trkpt>
      <trkpt lat="45.76501" lon="5.64825">
        <ele>297</ele>
        <time>2022-04-07T08:08:27Z</time>
      </trkpt>
      <trkpt lat="45.76554" lon="5.64801">
        <ele>300</ele>
        <time>2022-04-07T08:08:40Z</time>
      </trkpt>
      <trkpt lat="45.7657" lon="5.64799">
        <ele>301</ele>
        <time>2022-04-07T08:08:43Z</time>
      </trkpt>
      <trkpt lat="45.76584" lon="5.64794">
        <ele>301</ele>
        <time>2022-04-07T08:08:47Z</time>
      </trkpt>
      <trkpt lat="45.7662" lon="5.64767">
        <ele>299</ele>
        <time>2022-04-07T08:08:56Z</time>
      </trkpt>
      <trkpt lat="45.76662" lon="5.64746">
        <ele>298</ele>
        <time>2022-04-07T08:09:07Z</time>
      </trkpt>
      <trkpt lat="45.76709" lon="5.6474">
        <ele>298</ele>
        <time>2022-04-07T08:09:18Z</time>
      </trkpt>
      <trkpt lat="45.76768" lon="5.64755">
        <ele>302</ele>
        <time>2022-04-07T08:09:32Z</time>
      </trkpt>
      <trkpt lat="45.76787" lon="5.64755">
        <ele>303</ele>
        <time>2022-04-07T08:09:36Z</time>
      </trkpt>
      <trkpt lat="45.76853" lon="5.64747">
        <ele>307</ele>
        <time>2022-04-07T08:09:52Z</time>
      </trkpt>
      <trkpt lat="45.76886" lon="5.64732">
        <ele>311</ele>
        <time>2022-04-07T08:10:00Z</time>
      </trkpt>
      <trkpt lat="45.76949" lon="5.64712">
        <ele>316</ele>
        <time>2022-04-07T08:10:15Z</time>
      </trkpt>
      <trkpt lat="45.77239" lon="5.64644">
        <ele>327</ele>
        <time>2022-04-07T08:11:23Z</time>
      </trkpt>
      <trkpt lat="45.77418" lon="5.64548">
        <ele>344</ele>
        <time>2022-04-07T08:12:08Z</time>
      </trkpt>
      <trkpt lat="45.77477" lon="5.6452">
        <ele>351</ele>
        <time>2022-04-07T08:12:23Z</time>
      </trkpt>
      <trkpt lat="45.77564" lon="5.64466">
        <ele>353</ele>
        <time>2022-04-07T08:12:45Z</time>
      </trkpt>
      <trkpt lat="45.77589" lon="5.64459">
        <ele>353</ele>
        <time>2022-04-07T08:12:51Z</time>
      </trkpt>
      <trkpt lat="45.77611" lon="5.64449">
        <ele>351</ele>
        <time>2022-04-07T08:12:56Z</time>
      </trkpt>
      <trkpt lat="45.77675" lon="5.64411">
        <ele>347</ele>
        <time>2022-04-07T08:13:12Z</time>
      </trkpt>
      <trkpt lat="45.7781" lon="5.64346">
        <ele>344</ele>
        <time>2022-04-07T08:13:45Z</time>
      </trkpt>
      <trkpt lat="45.77834" lon="5.64344">
        <ele>343</ele>
        <time>2022-04-07T08:13:51Z</time>
      </trkpt>
      <trkpt lat="45.7789" lon="5.64314">
        <ele>348</ele>
        <time>2022-04-07T08:14:05Z</time>
      </trkpt>
      <trkpt lat="45.77901" lon="5.64315">
        <ele>349</ele>
        <time>2022-04-07T08:14:08Z</time>
      </trkpt>
      <trkpt lat="45.77935" lon="5.64292">
        <ele>351</ele>
        <time>2022-04-07T08:14:16Z</time>
      </trkpt>
      <trkpt lat="45.77959" lon="5.6427">
        <ele>353</ele>
        <time>2022-04-07T08:14:23Z</time>
      </trkpt>
      <trkpt lat="45.77987" lon="5.64264">
        <ele>354</ele>
        <time>2022-04-07T08:14:30Z</time>
      </trkpt>
      <trkpt lat="45.77996" lon="5.64259">
        <ele>355</ele>
        <time>2022-04-07T08:14:32Z</time>
      </trkpt>
      <trkpt lat="45.78013" lon="5.64232">
        <ele>356</ele>
        <time>2022-04-07T08:14:38Z</time>
      </trkpt>
      <trkpt lat="45.77985" lon="5.64211">
        <ele>357</ele>
        <time>2022-04-07T08:14:45Z</time>
      </trkpt>
      <trkpt lat="45.77972" lon="5.64206">
        <ele>357</ele>
        <time>2022-04-07T08:14:48Z</time>
      </trkpt>
      <trkpt lat="45.77946" lon="5.64207">
        <ele>356</ele>
        <time>2022-04-07T08:14:54Z</time>
      </trkpt>
      <trkpt lat="45.77929" lon="5.64203">
        <ele>356</ele>
        <time>2022-04-07T08:14:58Z</time>
      </trkpt>
      <trkpt lat="45.7791" lon="5.64184">
        <ele>358</ele>
        <time>2022-04-07T08:15:04Z</time>
      </trkpt>
      <trkpt lat="45.77888" lon="5.64168">
        <ele>360</ele>
        <time>2022-04-07T08:15:10Z</time>
      </trkpt>
      <trkpt lat="45.77879" lon="5.64154">
        <ele>361</ele>
        <time>2022-04-07T08:15:13Z</time>
      </trkpt>
      <trkpt lat="45.77876" lon="5.64123">
        <ele>362</ele>
        <time>2022-04-07T08:15:18Z</time>
      </trkpt>
      <trkpt lat="45.77871" lon="5.64107">
        <ele>363</ele>
        <time>2022-04-07T08:15:21Z</time>
      </trkpt>
      <trkpt lat="45.77864" lon="5.64098">
        <ele>363</ele>
        <time>2022-04-07T08:15:23Z</time>
      </trkpt>
      <trkpt lat="45.77852" lon="5.64092">
        <ele>363</ele>
        <time>2022-04-07T08:15:26Z</time>
      </trkpt>
      <trkpt lat="45.77845" lon="5.64084">
        <ele>363</ele>
        <time>2022-04-07T08:15:28Z</time>
      </trkpt>
      <trkpt lat="45.7781" lon="5.64034">
        <ele>362</ele>
        <time>2022-04-07T08:15:39Z</time>
      </trkpt>
      <trkpt lat="45.77791" lon="5.64014">
        <ele>361</ele>
        <time>2022-04-07T08:15:45Z</time>
      </trkpt>
      <trkpt lat="45.77772" lon="5.63997">
        <ele>361</ele>
        <time>2022-04-07T08:15:50Z</time>
      </trkpt>
      <trkpt lat="45.77729" lon="5.63966">
        <ele>363</ele>
        <time>2022-04-07T08:16:01Z</time>
      </trkpt>
      <trkpt lat="45.77727" lon="5.6393">
        <ele>365</ele>
        <time>2022-04-07T08:16:07Z</time>
      </trkpt>
      <trkpt lat="45.77732" lon="5.63914">
        <ele>365</ele>
        <time>2022-04-07T08:16:10Z</time>
      </trkpt>
      <trkpt lat="45.77751" lon="5.63878">
        <ele>366</ele>
        <time>2022-04-07T08:16:18Z</time>
      </trkpt>
      <trkpt lat="45.77792" lon="5.63824">
        <ele>367</ele>
        <time>2022-04-07T08:16:31Z</time>
      </trkpt>
      <trkpt lat="45.77801" lon="5.63809">
        <ele>367</ele>
        <time>2022-04-07T08:16:34Z</time>
      </trkpt>
      <trkpt lat="45.77821" lon="5.63758">
        <ele>367</ele>
        <time>2022-04-07T08:16:43Z</time>
      </trkpt>
      <trkpt lat="45.77828" lon="5.63752">
        <ele>366</ele>
        <time>2022-04-07T08:16:45Z</time>
      </trkpt>
      <trkpt lat="45.77841" lon="5.63728">
        <ele>366</ele>
        <time>2022-04-07T08:16:50Z</time>
      </trkpt>
      <trkpt lat="45.77846" lon="5.63714">
        <ele>366</ele>
        <time>2022-04-07T08:16:53Z</time>
      </trkpt>
      <trkpt lat="45.77853" lon="5.63647">
        <ele>367</ele>
        <time>2022-04-07T08:17:04Z</time>
      </trkpt>
      <trkpt lat="45.77861" lon="5.63608">
        <ele>367</ele>
        <time>2022-04-07T08:17:10Z</time>
      </trkpt>
      <trkpt lat="45.77885" lon="5.63536">
        <ele>367</ele>
        <time>2022-04-07T08:17:23Z</time>
      </trkpt>
      <trkpt lat="45.77879" lon="5.63542">
        <ele>367</ele>
        <time>2022-04-07T08:17:25Z</time>
      </trkpt>
      <trkpt lat="45.7787" lon="5.63559">
        <ele>367</ele>
        <time>2022-04-07T08:17:29Z</time>
      </trkpt>
      <trkpt lat="45.77845" lon="5.6362">
        <ele>368</ele>
        <time>2022-04-07T08:17:40Z</time>
      </trkpt>
      <trkpt lat="45.77812" lon="5.63669">
        <ele>369</ele>
        <time>2022-04-07T08:17:51Z</time>
      </trkpt>
      <trkpt lat="45.77748" lon="5.63705">
        <ele>372</ele>
        <time>2022-04-07T08:18:07Z</time>
      </trkpt>
      <trkpt lat="45.77722" lon="5.6374">
        <ele>375</ele>
        <time>2022-04-07T08:18:16Z</time>
      </trkpt>
      <trkpt lat="45.77701" lon="5.63757">
        <ele>378</ele>
        <time>2022-04-07T08:18:21Z</time>
      </trkpt>
      <trkpt lat="45.77696" lon="5.63765">
        <ele>379</ele>
        <time>2022-04-07T08:18:23Z</time>
      </trkpt>
      <trkpt lat="45.77689" lon="5.63804">
        <ele>378</ele>
        <time>2022-04-07T08:18:29Z</time>
      </trkpt>
      <trkpt lat="45.77677" lon="5.63827">
        <ele>378</ele>
        <time>2022-04-07T08:18:34Z</time>
      </trkpt>
      <trkpt lat="45.77667" lon="5.63862">
        <ele>376</ele>
        <time>2022-04-07T08:18:40Z</time>
      </trkpt>
      <trkpt lat="45.77654" lon="5.63888">
        <ele>375</ele>
        <time>2022-04-07T08:18:46Z</time>
      </trkpt>
      <trkpt lat="45.77645" lon="5.639">
        <ele>376</ele>
        <time>2022-04-07T08:18:48Z</time>
      </trkpt>
      <trkpt lat="45.77599" lon="5.63932">
        <ele>379</ele>
        <time>2022-04-07T08:19:00Z</time>
      </trkpt>
      <trkpt lat="45.77517" lon="5.63973">
        <ele>381</ele>
        <time>2022-04-07T08:19:21Z</time>
      </trkpt>
      <trkpt lat="45.77507" lon="5.63973">
        <ele>382</ele>
        <time>2022-04-07T08:19:23Z</time>
      </trkpt>
      <trkpt lat="45.7748" lon="5.63967">
        <ele>385</ele>
        <time>2022-04-07T08:19:29Z</time>
      </trkpt>
      <trkpt lat="45.77412" lon="5.64005">
        <ele>383</ele>
        <time>2022-04-07T08:19:46Z</time>
      </trkpt>
      <trkpt lat="45.77393" lon="5.64008">
        <ele>384</ele>
        <time>2022-04-07T08:19:51Z</time>
      </trkpt>
      <trkpt lat="45.77376" lon="5.64015">
        <ele>384</ele>
        <time>2022-04-07T08:19:55Z</time>
      </trkpt>
      <trkpt lat="45.77332" lon="5.64071">
        <ele>378</ele>
        <time>2022-04-07T08:20:09Z</time>
      </trkpt>
      <trkpt lat="45.77324" lon="5.64074">
        <ele>378</ele>
        <time>2022-04-07T08:20:11Z</time>
      </trkpt>
      <trkpt lat="45.77257" lon="5.64067">
        <ele>380</ele>
        <time>2022-04-07T08:20:26Z</time>
      </trkpt>
      <trkpt lat="45.77241" lon="5.6407">
        <ele>379</ele>
        <time>2022-04-07T08:20:30Z</time>
      </trkpt>
      <trkpt lat="45.77134" lon="5.6407">
        <ele>380</ele>
        <time>2022-04-07T08:20:55Z</time>
      </trkpt>
      <trkpt lat="45.77096" lon="5.64121">
        <ele>373</ele>
        <time>2022-04-07T08:21:07Z</time>
      </trkpt>
      <trkpt lat="45.77088" lon="5.6413">
        <ele>371</ele>
        <time>2022-04-07T08:21:10Z</time>
      </trkpt>
      <trkpt lat="45.77078" lon="5.64135">
        <ele>371</ele>
        <time>2022-04-07T08:21:12Z</time>
      </trkpt>
      <trkpt lat="45.7702" lon="5.64142">
        <ele>369</ele>
        <time>2022-04-07T08:21:26Z</time>
      </trkpt>
      <trkpt lat="45.7699" lon="5.64139">
        <ele>370</ele>
        <time>2022-04-07T08:21:33Z</time>
      </trkpt>
      <trkpt lat="45.76975" lon="5.64147">
        <ele>369</ele>
        <time>2022-04-07T08:21:36Z</time>
      </trkpt>
      <trkpt lat="45.76951" lon="5.64148">
        <ele>369</ele>
        <time>2022-04-07T08:21:42Z</time>
      </trkpt>
      <trkpt lat="45.7693" lon="5.64152">
        <ele>368</ele>
        <time>2022-04-07T08:21:47Z</time>
      </trkpt>
      <trkpt lat="45.7686" lon="5.64168">
        <ele>364</ele>
        <time>2022-04-07T08:22:04Z</time>
      </trkpt>
      <trkpt lat="45.76837" lon="5.64176">
        <ele>363</ele>
        <time>2022-04-07T08:22:09Z</time>
      </trkpt>
      <trkpt lat="45.76814" lon="5.64179">
        <ele>363</ele>
        <time>2022-04-07T08:22:14Z</time>
      </trkpt>
      <trkpt lat="45.7678" lon="5.64172">
        <ele>365</ele>
        <time>2022-04-07T08:22:22Z</time>
      </trkpt>
      <trkpt lat="45.76767" lon="5.64167">
        <ele>366</ele>
        <time>2022-04-07T08:22:26Z</time>
      </trkpt>
      <trkpt lat="45.76721" lon="5.64134">
        <ele>365</ele>
        <time>2022-04-07T08:22:38Z</time>
      </trkpt>
      <trkpt lat="45.767" lon="5.6409">
        <ele>366</ele>
        <time>2022-04-07T08:22:46Z</time>
      </trkpt>
      <trkpt lat="45.76673" lon="5.64057">
        <ele>366</ele>
        <time>2022-04-07T08:22:55Z</time>
      </trkpt>
      <trkpt lat="45.76677" lon="5.6405">
        <ele>366</ele>
        <time>2022-04-07T08:22:56Z</time>
      </trkpt>
      <trkpt lat="45.76664" lon="5.64032">
        <ele>366</ele>
        <time>2022-04-07T08:23:00Z</time>
      </trkpt>
      <trkpt lat="45.76622" lon="5.63999">
        <ele>362</ele>
        <time>2022-04-07T08:23:11Z</time>
      </trkpt>
      <trkpt lat="45.76595" lon="5.63984">
        <ele>360</ele>
        <time>2022-04-07T08:23:18Z</time>
      </trkpt>
      <trkpt lat="45.76581" lon="5.63981">
        <ele>358</ele>
        <time>2022-04-07T08:23:22Z</time>
      </trkpt>
      <trkpt lat="45.76579" lon="5.63952">
        <ele>358</ele>
        <time>2022-04-07T08:23:26Z</time>
      </trkpt>
      <trkpt lat="45.76575" lon="5.63936">
        <ele>358</ele>
        <time>2022-04-07T08:23:29Z</time>
      </trkpt>
      <trkpt lat="45.76559" lon="5.63912">
        <ele>356</ele>
        <time>2022-04-07T08:23:34Z</time>
      </trkpt>
      <trkpt lat="45.76537" lon="5.63888">
        <ele>353</ele>
        <time>2022-04-07T08:23:41Z</time>
      </trkpt>
      <trkpt lat="45.76511" lon="5.63837">
        <ele>348</ele>
        <time>2022-04-07T08:23:51Z</time>
      </trkpt>
      <trkpt lat="45.76483" lon="5.63814">
        <ele>347</ele>
        <time>2022-04-07T08:23:59Z</time>
      </trkpt>
      <trkpt lat="45.76466" lon="5.63794">
        <ele>346</ele>
        <time>2022-04-07T08:24:04Z</time>
      </trkpt>
      <trkpt lat="45.76457" lon="5.6377">
        <ele>345</ele>
        <time>2022-04-07T08:24:08Z</time>
      </trkpt>
      <trkpt lat="45.76444" lon="5.63709">
        <ele>345</ele>
        <time>2022-04-07T08:24:19Z</time>
      </trkpt>
      <trkpt lat="45.76423" lon="5.63669">
        <ele>344</ele>
        <time>2022-04-07T08:24:27Z</time>
      </trkpt>
      <trkpt lat="45.76417" lon="5.6369">
        <ele>344</ele>
        <time>2022-04-07T08:24:31Z</time>
      </trkpt>
      <trkpt lat="45.76346" lon="5.63823">
        <ele>346</ele>
        <time>2022-04-07T08:24:58Z</time>
      </trkpt>
      <trkpt lat="45.76331" lon="5.63858">
        <ele>348</ele>
        <time>2022-04-07T08:25:05Z</time>
      </trkpt>
      <trkpt lat="45.76325" lon="5.63899">
        <ele>353</ele>
        <time>2022-04-07T08:25:11Z</time>
      </trkpt>
      <trkpt lat="45.76325" lon="5.63986">
        <ele>355</ele>
        <time>2022-04-07T08:25:26Z</time>
      </trkpt>
      <trkpt lat="45.76289" lon="5.64008">
        <ele>357</ele>
        <time>2022-04-07T08:25:35Z</time>
      </trkpt>
      <trkpt lat="45.76277" lon="5.6401">
        <ele>358</ele>
        <time>2022-04-07T08:25:38Z</time>
      </trkpt>
      <trkpt lat="45.76254" lon="5.63999">
        <ele>359</ele>
        <time>2022-04-07T08:25:43Z</time>
      </trkpt>
      <trkpt lat="45.76232" lon="5.63974">
        <ele>360</ele>
        <time>2022-04-07T08:25:50Z</time>
      </trkpt>
      <trkpt lat="45.76208" lon="5.63958">
        <ele>361</ele>
        <time>2022-04-07T08:25:56Z</time>
      </trkpt>
      <trkpt lat="45.76197" lon="5.63958">
        <ele>362</ele>
        <time>2022-04-07T08:25:58Z</time>
      </trkpt>
      <trkpt lat="45.7617" lon="5.63941">
        <ele>363</ele>
        <time>2022-04-07T08:26:05Z</time>
      </trkpt>
      <trkpt lat="45.76149" lon="5.63936">
        <ele>365</ele>
        <time>2022-04-07T08:26:10Z</time>
      </trkpt>
      <trkpt lat="45.76118" lon="5.6392">
        <ele>366</ele>
        <time>2022-04-07T08:26:18Z</time>
      </trkpt>
      <trkpt lat="45.76095" lon="5.63912">
        <ele>366</ele>
        <time>2022-04-07T08:26:24Z</time>
      </trkpt>
      <trkpt lat="45.76078" lon="5.63909">
        <ele>366</ele>
        <time>2022-04-07T08:26:28Z</time>
      </trkpt>
      <trkpt lat="45.7602" lon="5.63912">
        <ele>366</ele>
        <time>2022-04-07T08:26:41Z</time>
      </trkpt>
      <trkpt lat="45.75999" lon="5.6391">
        <ele>365</ele>
        <time>2022-04-07T08:26:46Z</time>
      </trkpt>
      <trkpt lat="45.75944" lon="5.63892">
        <ele>358</ele>
        <time>2022-04-07T08:26:59Z</time>
      </trkpt>
      <trkpt lat="45.75919" lon="5.63899">
        <ele>358</ele>
        <time>2022-04-07T08:27:05Z</time>
      </trkpt>
      <trkpt lat="45.75904" lon="5.639">
        <ele>358</ele>
        <time>2022-04-07T08:27:09Z</time>
      </trkpt>
      <trkpt lat="45.75814" lon="5.63898">
        <ele>355</ele>
        <time>2022-04-07T08:27:30Z</time>
      </trkpt>
      <trkpt lat="45.75772" lon="5.63891">
        <ele>354</ele>
        <time>2022-04-07T08:27:40Z</time>
      </trkpt>
      <trkpt lat="45.75757" lon="5.63886">
        <ele>353</ele>
        <time>2022-04-07T08:27:43Z</time>
      </trkpt>
      <trkpt lat="45.75713" lon="5.63896">
        <ele>357</ele>
        <time>2022-04-07T08:27:54Z</time>
      </trkpt>
      <trkpt lat="45.75696" lon="5.63892">
        <ele>358</ele>
        <time>2022-04-07T08:27:58Z</time>
      </trkpt>
      <trkpt lat="45.75685" lon="5.6388">
        <ele>356</ele>
        <time>2022-04-07T08:28:01Z</time>
      </trkpt>
      <trkpt lat="45.75679" lon="5.6386">
        <ele>353</ele>
        <time>2022-04-07T08:28:04Z</time>
      </trkpt>
      <trkpt lat="45.75671" lon="5.63848">
        <ele>351</ele>
        <time>2022-04-07T08:28:07Z</time>
      </trkpt>
      <trkpt lat="45.75658" lon="5.6382">
        <ele>349</ele>
        <time>2022-04-07T08:28:13Z</time>
      </trkpt>
      <trkpt lat="45.75631" lon="5.63776">
        <ele>349</ele>
        <time>2022-04-07T08:28:22Z</time>
      </trkpt>
      <trkpt lat="45.75616" lon="5.63769">
        <ele>349</ele>
        <time>2022-04-07T08:28:26Z</time>
      </trkpt>
      <trkpt lat="45.7561" lon="5.63763">
        <ele>349</ele>
        <time>2022-04-07T08:28:27Z</time>
      </trkpt>
      <trkpt lat="45.75597" lon="5.6376">
        <ele>350</ele>
        <time>2022-04-07T08:28:31Z</time>
      </trkpt>
      <trkpt lat="45.75581" lon="5.63762">
        <ele>351</ele>
        <time>2022-04-07T08:28:34Z</time>
      </trkpt>
      <trkpt lat="45.75558" lon="5.63779">
        <ele>351</ele>
        <time>2022-04-07T08:28:40Z</time>
      </trkpt>
      <trkpt lat="45.75532" lon="5.63736">
        <ele>352</ele>
        <time>2022-04-07T08:28:50Z</time>
      </trkpt>
      <trkpt lat="45.75515" lon="5.63738">
        <ele>352</ele>
        <time>2022-04-07T08:28:54Z</time>
      </trkpt>
      <trkpt lat="45.75483" lon="5.6373">
        <ele>352</ele>
        <time>2022-04-07T08:29:01Z</time>
      </trkpt>
      <trkpt lat="45.75471" lon="5.6372">
        <ele>353</ele>
        <time>2022-04-07T08:29:04Z</time>
      </trkpt>
      <trkpt lat="45.75446" lon="5.63707">
        <ele>353</ele>
        <time>2022-04-07T08:29:11Z</time>
      </trkpt>
      <trkpt lat="45.75423" lon="5.63706">
        <ele>353</ele>
        <time>2022-04-07T08:29:16Z</time>
      </trkpt>
      <trkpt lat="45.75377" lon="5.63679">
        <ele>355</ele>
        <time>2022-04-07T08:29:28Z</time>
      </trkpt>
      <trkpt lat="45.7532" lon="5.63663">
        <ele>356</ele>
        <time>2022-04-07T08:29:41Z</time>
      </trkpt>
      <trkpt lat="45.75245" lon="5.6363">
        <ele>359</ele>
        <time>2022-04-07T08:30:00Z</time>
      </trkpt>
      <trkpt lat="45.75237" lon="5.63621">
        <ele>359</ele>
        <time>2022-04-07T08:30:02Z</time>
      </trkpt>
      <trkpt lat="45.75215" lon="5.63613">
        <ele>359</ele>
        <time>2022-04-07T08:30:07Z</time>
      </trkpt>
      <trkpt lat="45.7519" lon="5.636">
        <ele>358</ele>
        <time>2022-04-07T08:30:13Z</time>
      </trkpt>
      <trkpt lat="45.75179" lon="5.636">
        <ele>357</ele>
        <time>2022-04-07T08:30:16Z</time>
      </trkpt>
      <trkpt lat="45.75169" lon="5.63605">
        <ele>356</ele>
        <time>2022-04-07T08:30:18Z</time>
      </trkpt>
      <trkpt lat="45.75153" lon="5.63606">
        <ele>355</ele>
        <time>2022-04-07T08:30:22Z</time>
      </trkpt>
      <trkpt lat="45.75128" lon="5.63602">
        <ele>354</ele>
        <time>2022-04-07T08:30:28Z</time>
      </trkpt>
      <trkpt lat="45.75116" lon="5.63589">
        <ele>353</ele>
        <time>2022-04-07T08:30:32Z</time>
      </trkpt>
      <trkpt lat="45.75096" lon="5.63575">
        <ele>351</ele>
        <time>2022-04-07T08:30:37Z</time>
      </trkpt>
      <trkpt lat="45.75081" lon="5.63571">
        <ele>350</ele>
        <time>2022-04-07T08:30:40Z</time>
      </trkpt>
      <trkpt lat="45.75072" lon="5.63561">
        <ele>349</ele>
        <time>2022-04-07T08:30:43Z</time>
      </trkpt>
      <trkpt lat="45.75062" lon="5.63556">
        <ele>349</ele>
        <time>2022-04-07T08:30:45Z</time>
      </trkpt>
      <trkpt lat="45.7505" lon="5.63562">
        <ele>349</ele>
        <time>2022-04-07T08:30:48Z</time>
      </trkpt>
      <trkpt lat="45.75047" lon="5.63574">
        <ele>349</ele>
        <time>2022-04-07T08:30:51Z</time>
      </trkpt>
      <trkpt lat="45.75034" lon="5.63581">
        <ele>349</ele>
        <time>2022-04-07T08:30:54Z</time>
      </trkpt>
      <trkpt lat="45.7502" lon="5.63583">
        <ele>349</ele>
        <time>2022-04-07T08:30:57Z</time>
      </trkpt>
      <trkpt lat="45.74988" lon="5.63573">
        <ele>348</ele>
        <time>2022-04-07T08:31:05Z</time>
      </trkpt>
      <trkpt lat="45.74968" lon="5.63562">
        <ele>348</ele>
        <time>2022-04-07T08:31:10Z</time>
      </trkpt>
      <trkpt lat="45.74954" lon="5.63561">
        <ele>348</ele>
        <time>2022-04-07T08:31:13Z</time>
      </trkpt>
      <trkpt lat="45.74909" lon="5.63545">
        <ele>347</ele>
        <time>2022-04-07T08:31:24Z</time>
      </trkpt>
      <trkpt lat="45.74905" lon="5.63547">
        <ele>347</ele>
        <time>2022-04-07T08:31:25Z</time>
      </trkpt>
      <trkpt lat="45.74896" lon="5.6354">
        <ele>346</ele>
        <time>2022-04-07T08:31:27Z</time>
      </trkpt>
      <trkpt lat="45.7487" lon="5.63532">
        <ele>345</ele>
        <time>2022-04-07T08:31:33Z</time>
      </trkpt>
      <trkpt lat="45.74813" lon="5.63535">
        <ele>346</ele>
        <time>2022-04-07T08:31:47Z</time>
      </trkpt>
      <trkpt lat="45.74804" lon="5.63545">
        <ele>348</ele>
        <time>2022-04-07T08:31:49Z</time>
      </trkpt>
      <trkpt lat="45.74781" lon="5.63559">
        <ele>352</ele>
        <time>2022-04-07T08:31:55Z</time>
      </trkpt>
      <trkpt lat="45.74771" lon="5.63568">
        <ele>354</ele>
        <time>2022-04-07T08:31:58Z</time>
      </trkpt>
      <trkpt lat="45.74766" lon="5.63584">
        <ele>357</ele>
        <time>2022-04-07T08:32:01Z</time>
      </trkpt>
      <trkpt lat="45.7475" lon="5.63588">
        <ele>358</ele>
        <time>2022-04-07T08:32:05Z</time>
      </trkpt>
      <trkpt lat="45.74701" lon="5.63578">
        <ele>358</ele>
        <time>2022-04-07T08:32:16Z</time>
      </trkpt>
      <trkpt lat="45.74682" lon="5.6357">
        <ele>358</ele>
        <time>2022-04-07T08:32:21Z</time>
      </trkpt>
      <trkpt lat="45.74662" lon="5.63568">
        <ele>359</ele>
        <time>2022-04-07T08:32:25Z</time>
      </trkpt>
      <trkpt lat="45.74635" lon="5.63544">
        <ele>359</ele>
        <time>2022-04-07T08:32:33Z</time>
      </trkpt>
      <trkpt lat="45.74624" lon="5.63543">
        <ele>360</ele>
        <time>2022-04-07T08:32:35Z</time>
      </trkpt>
      <trkpt lat="45.74613" lon="5.6355">
        <ele>362</ele>
        <time>2022-04-07T08:32:38Z</time>
      </trkpt>
      <trkpt lat="45.74599" lon="5.6357">
        <ele>365</ele>
        <time>2022-04-07T08:32:43Z</time>
      </trkpt>
      <trkpt lat="45.74576" lon="5.63576">
        <ele>367</ele>
        <time>2022-04-07T08:32:48Z</time>
      </trkpt>
      <trkpt lat="45.74557" lon="5.63575">
        <ele>367</ele>
        <time>2022-04-07T08:32:53Z</time>
      </trkpt>
      <trkpt lat="45.7454" lon="5.63577">
        <ele>367</ele>
        <time>2022-04-07T08:32:57Z</time>
      </trkpt>
      <trkpt lat="45.74506" lon="5.63561">
        <ele>367</ele>
        <time>2022-04-07T08:33:05Z</time>
      </trkpt>
      <trkpt lat="45.74477" lon="5.63564">
        <ele>368</ele>
        <time>2022-04-07T08:33:12Z</time>
      </trkpt>
      <trkpt lat="45.74466" lon="5.6356">
        <ele>368</ele>
        <time>2022-04-07T08:33:15Z</time>
      </trkpt>
      <trkpt lat="45.74457" lon="5.63528">
        <ele>370</ele>
        <time>2022-04-07T08:33:20Z</time>
      </trkpt>
      <trkpt lat="45.74462" lon="5.63512">
        <ele>371</ele>
        <time>2022-04-07T08:33:23Z</time>
      </trkpt>
      <trkpt lat="45.74454" lon="5.63479">
        <ele>370</ele>
        <time>2022-04-07T08:33:29Z</time>
      </trkpt>
      <trkpt lat="45.7447" lon="5.63476">
        <ele>369</ele>
        <time>2022-04-07T08:33:33Z</time>
      </trkpt>
      <trkpt lat="45.74479" lon="5.63465">
        <ele>368</ele>
        <time>2022-04-07T08:33:35Z</time>
      </trkpt>
      <trkpt lat="45.74486" lon="5.63444">
        <ele>366</ele>
        <time>2022-04-07T08:33:39Z</time>
      </trkpt>
      <trkpt lat="45.74484" lon="5.63432">
        <ele>364</ele>
        <time>2022-04-07T08:33:41Z</time>
      </trkpt>
      <trkpt lat="45.74477" lon="5.63428">
        <ele>364</ele>
        <time>2022-04-07T08:33:43Z</time>
      </trkpt>
      <trkpt lat="45.7448" lon="5.63416">
        <ele>363</ele>
        <time>2022-04-07T08:33:45Z</time>
      </trkpt>
      <trkpt lat="45.74475" lon="5.63404">
        <ele>362</ele>
        <time>2022-04-07T08:33:47Z</time>
      </trkpt>
      <trkpt lat="45.74462" lon="5.63399">
        <ele>362</ele>
        <time>2022-04-07T08:33:50Z</time>
      </trkpt>
      <trkpt lat="45.74455" lon="5.63391">
        <ele>362</ele>
        <time>2022-04-07T08:33:52Z</time>
      </trkpt>
      <trkpt lat="45.74443" lon="5.63389">
        <ele>363</ele>
        <time>2022-04-07T08:33:55Z</time>
      </trkpt>
      <trkpt lat="45.74441" lon="5.63377">
        <ele>362</ele>
        <time>2022-04-07T08:33:57Z</time>
      </trkpt>
      <trkpt lat="45.74443" lon="5.63358">
        <ele>360</ele>
        <time>2022-04-07T08:34:00Z</time>
      </trkpt>
      <trkpt lat="45.74437" lon="5.63327">
        <ele>359</ele>
        <time>2022-04-07T08:34:06Z</time>
      </trkpt>
      <trkpt lat="45.74408" lon="5.63269">
        <ele>366</ele>
        <time>2022-04-07T08:34:17Z</time>
      </trkpt>
      <trkpt lat="45.74396" lon="5.63257">
        <ele>368</ele>
        <time>2022-04-07T08:34:21Z</time>
      </trkpt>
      <trkpt lat="45.74382" lon="5.63257">
        <ele>368</ele>
        <time>2022-04-07T08:34:24Z</time>
      </trkpt>
      <trkpt lat="45.74366" lon="5.63252">
        <ele>369</ele>
        <time>2022-04-07T08:34:28Z</time>
      </trkpt>
      <trkpt lat="45.74348" lon="5.63237">
        <ele>371</ele>
        <time>2022-04-07T08:34:33Z</time>
      </trkpt>
      <trkpt lat="45.74322" lon="5.63226">
        <ele>372</ele>
        <time>2022-04-07T08:34:39Z</time>
      </trkpt>
      <trkpt lat="45.74294" lon="5.63223">
        <ele>372</ele>
        <time>2022-04-07T08:34:46Z</time>
      </trkpt>
      <trkpt lat="45.74282" lon="5.6323">
        <ele>372</ele>
        <time>2022-04-07T08:34:49Z</time>
      </trkpt>
      <trkpt lat="45.74267" lon="5.63248">
        <ele>372</ele>
        <time>2022-04-07T08:34:53Z</time>
      </trkpt>
      <trkpt lat="45.74255" lon="5.63257">
        <ele>373</ele>
        <time>2022-04-07T08:34:56Z</time>
      </trkpt>
      <trkpt lat="45.74235" lon="5.63267">
        <ele>374</ele>
        <time>2022-04-07T08:35:01Z</time>
      </trkpt>
      <trkpt lat="45.74209" lon="5.63267">
        <ele>373</ele>
        <time>2022-04-07T08:35:07Z</time>
      </trkpt>
      <trkpt lat="45.7419" lon="5.63261">
        <ele>372</ele>
        <time>2022-04-07T08:35:12Z</time>
      </trkpt>
      <trkpt lat="45.74175" lon="5.63244">
        <ele>369</ele>
        <time>2022-04-07T08:35:16Z</time>
      </trkpt>
      <trkpt lat="45.74146" lon="5.63224">
        <ele>367</ele>
        <time>2022-04-07T08:35:24Z</time>
      </trkpt>
      <trkpt lat="45.74117" lon="5.63186">
        <ele>364</ele>
        <time>2022-04-07T08:35:33Z</time>
      </trkpt>
      <trkpt lat="45.74087" lon="5.63155">
        <ele>363</ele>
        <time>2022-04-07T08:35:42Z</time>
      </trkpt>
      <trkpt lat="45.74074" lon="5.63151">
        <ele>363</ele>
        <time>2022-04-07T08:35:45Z</time>
      </trkpt>
      <trkpt lat="45.74031" lon="5.63154">
        <ele>362</ele>
        <time>2022-04-07T08:35:55Z</time>
      </trkpt>
      <trkpt lat="45.74012" lon="5.63153">
        <ele>362</ele>
        <time>2022-04-07T08:35:59Z</time>
      </trkpt>
      <trkpt lat="45.74004" lon="5.6315">
        <ele>362</ele>
        <time>2022-04-07T08:36:01Z</time>
      </trkpt>
      <trkpt lat="45.73979" lon="5.63129">
        <ele>363</ele>
        <time>2022-04-07T08:36:08Z</time>
      </trkpt>
      <trkpt lat="45.73969" lon="5.63124">
        <ele>363</ele>
        <time>2022-04-07T08:36:10Z</time>
      </trkpt>
      <trkpt lat="45.73935" lon="5.63112">
        <ele>362</ele>
        <time>2022-04-07T08:36:19Z</time>
      </trkpt>
      <trkpt lat="45.73924" lon="5.63105">
        <ele>362</ele>
        <time>2022-04-07T08:36:21Z</time>
      </trkpt>
      <trkpt lat="45.73899" lon="5.631">
        <ele>361</ele>
        <time>2022-04-07T08:36:27Z</time>
      </trkpt>
      <trkpt lat="45.73857" lon="5.63081">
        <ele>360</ele>
        <time>2022-04-07T08:36:38Z</time>
      </trkpt>
      <trkpt lat="45.73823" lon="5.63069">
        <ele>360</ele>
        <time>2022-04-07T08:36:46Z</time>
      </trkpt>
      <trkpt lat="45.73814" lon="5.6306">
        <ele>361</ele>
        <time>2022-04-07T08:36:48Z</time>
      </trkpt>
      <trkpt lat="45.73809" lon="5.63051">
        <ele>362</ele>
        <time>2022-04-07T08:36:50Z</time>
      </trkpt>
      <trkpt lat="45.73786" lon="5.63033">
        <ele>362</ele>
        <time>2022-04-07T08:36:56Z</time>
      </trkpt>
      <trkpt lat="45.73758" lon="5.63027">
        <ele>361</ele>
        <time>2022-04-07T08:37:03Z</time>
      </trkpt>
      <trkpt lat="45.73659" lon="5.63015">
        <ele>359</ele>
        <time>2022-04-07T08:37:26Z</time>
      </trkpt>
      <trkpt lat="45.73651" lon="5.63012">
        <ele>359</ele>
        <time>2022-04-07T08:37:28Z</time>
      </trkpt>
      <trkpt lat="45.7366" lon="5.63065">
        <ele>358</ele>
        <time>2022-04-07T08:37:37Z</time>
      </trkpt>
      <trkpt lat="45.73681" lon="5.63286">
        <ele>365</ele>
        <time>2022-04-07T08:38:13Z</time>
      </trkpt>
      <trkpt lat="45.7368" lon="5.63307">
        <ele>366</ele>
        <time>2022-04-07T08:38:17Z</time>
      </trkpt>
      <trkpt lat="45.73668" lon="5.63347">
        <ele>368</ele>
        <time>2022-04-07T08:38:24Z</time>
      </trkpt>
      <trkpt lat="45.73667" lon="5.63402">
        <ele>370</ele>
        <time>2022-04-07T08:38:33Z</time>
      </trkpt>
      <trkpt lat="45.7367" lon="5.6343">
        <ele>371</ele>
        <time>2022-04-07T08:38:37Z</time>
      </trkpt>
      <trkpt lat="45.7367" lon="5.6347">
        <ele>372</ele>
        <time>2022-04-07T08:38:44Z</time>
      </trkpt>
      <trkpt lat="45.73673" lon="5.63482">
        <ele>373</ele>
        <time>2022-04-07T08:38:46Z</time>
      </trkpt>
      <trkpt lat="45.73681" lon="5.63494">
        <ele>373</ele>
        <time>2022-04-07T08:38:49Z</time>
      </trkpt>
      <trkpt lat="45.7369" lon="5.63541">
        <ele>374</ele>
        <time>2022-04-07T08:38:57Z</time>
      </trkpt>
      <trkpt lat="45.7369" lon="5.63558">
        <ele>374</ele>
        <time>2022-04-07T08:38:59Z</time>
      </trkpt>
      <trkpt lat="45.73684" lon="5.63571">
        <ele>374</ele>
        <time>2022-04-07T08:39:02Z</time>
      </trkpt>
      <trkpt lat="45.73605" lon="5.6362">
        <ele>373</ele>
        <time>2022-04-07T08:39:22Z</time>
      </trkpt>
      <trkpt lat="45.73599" lon="5.63663">
        <ele>373</ele>
        <time>2022-04-07T08:39:29Z</time>
      </trkpt>
      <trkpt lat="45.73604" lon="5.63674">
        <ele>372</ele>
        <time>2022-04-07T08:39:31Z</time>
      </trkpt>
      <trkpt lat="45.73656" lon="5.63688">
        <ele>375</ele>
        <time>2022-04-07T08:39:44Z</time>
      </trkpt>
      <trkpt lat="45.73675" lon="5.63701">
        <ele>376</ele>
        <time>2022-04-07T08:39:49Z</time>
      </trkpt>
      <trkpt lat="45.73711" lon="5.63732">
        <ele>378</ele>
        <time>2022-04-07T08:39:58Z</time>
      </trkpt>
      <trkpt lat="45.73766" lon="5.63772">
        <ele>378</ele>
        <time>2022-04-07T08:40:13Z</time>
      </trkpt>
      <trkpt lat="45.73778" lon="5.63788">
        <ele>377</ele>
        <time>2022-04-07T08:40:17Z</time>
      </trkpt>
      <trkpt lat="45.73838" lon="5.63831">
        <ele>374</ele>
        <time>2022-04-07T08:40:32Z</time>
      </trkpt>
      <trkpt lat="45.73885" lon="5.63853">
        <ele>373</ele>
        <time>2022-04-07T08:40:44Z</time>
      </trkpt>
      <trkpt lat="45.73909" lon="5.63855">
        <ele>373</ele>
        <time>2022-04-07T08:40:50Z</time>
      </trkpt>
      <trkpt lat="45.73956" lon="5.63871">
        <ele>371</ele>
        <time>2022-04-07T08:41:01Z</time>
      </trkpt>
      <trkpt lat="45.74012" lon="5.639">
        <ele>369</ele>
        <time>2022-04-07T08:41:15Z</time>
      </trkpt>
      <trkpt lat="45.74044" lon="5.63912">
        <ele>368</ele>
        <time>2022-04-07T08:41:22Z</time>
      </trkpt>
      <trkpt lat="45.74067" lon="5.63919">
        <ele>368</ele>
        <time>2022-04-07T08:41:28Z</time>
      </trkpt>
      <trkpt lat="45.74099" lon="5.63924">
        <ele>367</ele>
        <time>2022-04-07T08:41:35Z</time>
      </trkpt>
      <trkpt lat="45.74108" lon="5.63922">
        <ele>367</ele>
        <time>2022-04-07T08:41:38Z</time>
      </trkpt>
      <trkpt lat="45.74133" lon="5.63925">
        <ele>366</ele>
        <time>2022-04-07T08:41:43Z</time>
      </trkpt>
      <trkpt lat="45.74166" lon="5.63949">
        <ele>361</ele>
        <time>2022-04-07T08:41:52Z</time>
      </trkpt>
      <trkpt lat="45.74171" lon="5.63955">
        <ele>360</ele>
        <time>2022-04-07T08:41:54Z</time>
      </trkpt>
      <trkpt lat="45.74174" lon="5.63965">
        <ele>359</ele>
        <time>2022-04-07T08:41:55Z</time>
      </trkpt>
      <trkpt lat="45.7419" lon="5.63982">
        <ele>355</ele>
        <time>2022-04-07T08:42:00Z</time>
      </trkpt>
      <trkpt lat="45.742" lon="5.63985">
        <ele>354</ele>
        <time>2022-04-07T08:42:02Z</time>
      </trkpt>
      <trkpt lat="45.74229" lon="5.64018">
        <ele>347</ele>
        <time>2022-04-07T08:42:11Z</time>
      </trkpt>
      <trkpt lat="45.74241" lon="5.64036">
        <ele>344</ele>
        <time>2022-04-07T08:42:15Z</time>
      </trkpt>
      <trkpt lat="45.7425" lon="5.64043">
        <ele>343</ele>
        <time>2022-04-07T08:42:17Z</time>
      </trkpt>
      <trkpt lat="45.74257" lon="5.64061">
        <ele>341</ele>
        <time>2022-04-07T08:42:21Z</time>
      </trkpt>
      <trkpt lat="45.7426" lon="5.6408">
        <ele>338</ele>
        <time>2022-04-07T08:42:24Z</time>
      </trkpt>
      <trkpt lat="45.7429" lon="5.64077">
        <ele>335</ele>
        <time>2022-04-07T08:42:31Z</time>
      </trkpt>
      <trkpt lat="45.74337" lon="5.6408">
        <ele>330</ele>
        <time>2022-04-07T08:42:42Z</time>
      </trkpt>
      <trkpt lat="45.74345" lon="5.64078">
        <ele>330</ele>
        <time>2022-04-07T08:42:44Z</time>
      </trkpt>
      <trkpt lat="45.74354" lon="5.6408">
        <ele>329</ele>
        <time>2022-04-07T08:42:46Z</time>
      </trkpt>
      <trkpt lat="45.74363" lon="5.64077">
        <ele>329</ele>
        <time>2022-04-07T08:42:48Z</time>
      </trkpt>
      <trkpt lat="45.74371" lon="5.6408">
        <ele>328</ele>
        <time>2022-04-07T08:42:50Z</time>
      </trkpt>
      <trkpt lat="45.74379" lon="5.64078">
        <ele>328</ele>
        <time>2022-04-07T08:42:52Z</time>
      </trkpt>
      <trkpt lat="45.74389" lon="5.6408">
        <ele>327</ele>
        <time>2022-04-07T08:42:54Z</time>
      </trkpt>
      <trkpt lat="45.74395" lon="5.64084">
        <ele>326</ele>
        <time>2022-04-07T08:42:56Z</time>
      </trkpt>
      <trkpt lat="45.74429" lon="5.64092">
        <ele>323</ele>
        <time>2022-04-07T08:43:04Z</time>
      </trkpt>
      <trkpt lat="45.74436" lon="5.64091">
        <ele>323</ele>
        <time>2022-04-07T08:43:06Z</time>
      </trkpt>
      <trkpt lat="45.74459" lon="5.64112">
        <ele>321</ele>
        <time>2022-04-07T08:43:12Z</time>
      </trkpt>
      <trkpt lat="45.74467" lon="5.64124">
        <ele>320</ele>
        <time>2022-04-07T08:43:15Z</time>
      </trkpt>
      <trkpt lat="45.74472" lon="5.64144">
        <ele>319</ele>
        <time>2022-04-07T08:43:18Z</time>
      </trkpt>
      <trkpt lat="45.74488" lon="5.64165">
        <ele>316</ele>
        <time>2022-04-07T08:43:23Z</time>
      </trkpt>
      <trkpt lat="45.74491" lon="5.64175">
        <ele>316</ele>
        <time>2022-04-07T08:43:25Z</time>
      </trkpt>
      <trkpt lat="45.74483" lon="5.64186">
        <ele>317</ele>
        <time>2022-04-07T08:43:28Z</time>
      </trkpt>
      <trkpt lat="45.74472" lon="5.64193">
        <ele>317</ele>
        <time>2022-04-07T08:43:30Z</time>
      </trkpt>
      <trkpt lat="45.74464" lon="5.64215">
        <ele>317</ele>
        <time>2022-04-07T08:43:34Z</time>
      </trkpt>
      <trkpt lat="45.74472" lon="5.64237">
        <ele>317</ele>
        <time>2022-04-07T08:43:38Z</time>
      </trkpt>
      <trkpt lat="45.74471" lon="5.64249">
        <ele>316</ele>
        <time>2022-04-07T08:43:40Z</time>
      </trkpt>
      <trkpt lat="45.74465" lon="5.64265">
        <ele>315</ele>
        <time>2022-04-07T08:43:43Z</time>
      </trkpt>
      <trkpt lat="45.7446" lon="5.6431">
        <ele>310</ele>
        <time>2022-04-07T08:43:51Z</time>
      </trkpt>
      <trkpt lat="45.74462" lon="5.64318">
        <ele>310</ele>
        <time>2022-04-07T08:43:52Z</time>
      </trkpt>
      <trkpt lat="45.74456" lon="5.64328">
        <ele>308</ele>
        <time>2022-04-07T08:43:54Z</time>
      </trkpt>
      <trkpt lat="45.74444" lon="5.64336">
        <ele>307</ele>
        <time>2022-04-07T08:43:57Z</time>
      </trkpt>
      <trkpt lat="45.7445" lon="5.64345">
        <ele>306</ele>
        <time>2022-04-07T08:43:59Z</time>
      </trkpt>
      <trkpt lat="45.74457" lon="5.64344">
        <ele>307</ele>
        <time>2022-04-07T08:44:01Z</time>
      </trkpt>
      <trkpt lat="45.74461" lon="5.64349">
        <ele>307</ele>
        <time>2022-04-07T08:44:02Z</time>
      </trkpt>
      <trkpt lat="45.74467" lon="5.64349">
        <ele>307</ele>
        <time>2022-04-07T08:44:04Z</time>
      </trkpt>
      <trkpt lat="45.74472" lon="5.64362">
        <ele>306</ele>
        <time>2022-04-07T08:44:06Z</time>
      </trkpt>
      <trkpt lat="45.74471" lon="5.64376">
        <ele>305</ele>
        <time>2022-04-07T08:44:08Z</time>
      </trkpt>
      <trkpt lat="45.74474" lon="5.64384">
        <ele>304</ele>
        <time>2022-04-07T08:44:10Z</time>
      </trkpt>
      <trkpt lat="45.74483" lon="5.64395">
        <ele>304</ele>
        <time>2022-04-07T08:44:13Z</time>
      </trkpt>
      <trkpt lat="45.74483" lon="5.64405">
        <ele>304</ele>
        <time>2022-04-07T08:44:14Z</time>
      </trkpt>
      <trkpt lat="45.74477" lon="5.64412">
        <ele>302</ele>
        <time>2022-04-07T08:44:16Z</time>
      </trkpt>
      <trkpt lat="45.74469" lon="5.64416">
        <ele>301</ele>
        <time>2022-04-07T08:44:18Z</time>
      </trkpt>
      <trkpt lat="45.74463" lon="5.64424">
        <ele>301</ele>
        <time>2022-04-07T08:44:20Z</time>
      </trkpt>
      <trkpt lat="45.74446" lon="5.64435">
        <ele>300</ele>
        <time>2022-04-07T08:44:24Z</time>
      </trkpt>
      <trkpt lat="45.74433" lon="5.64455">
        <ele>299</ele>
        <time>2022-04-07T08:44:29Z</time>
      </trkpt>
      <trkpt lat="45.74429" lon="5.6447">
        <ele>299</ele>
        <time>2022-04-07T08:44:31Z</time>
      </trkpt>
      <trkpt lat="45.74424" lon="5.64533">
        <ele>302</ele>
        <time>2022-04-07T08:44:42Z</time>
      </trkpt>
      <trkpt lat="45.74424" lon="5.64613">
        <ele>304</ele>
        <time>2022-04-07T08:44:55Z</time>
      </trkpt>
      <trkpt lat="45.74422" lon="5.64645">
        <ele>301</ele>
        <time>2022-04-07T08:45:00Z</time>
      </trkpt>
      <trkpt lat="45.74417" lon="5.64675">
        <ele>296</ele>
        <time>2022-04-07T08:45:05Z</time>
      </trkpt>
      <trkpt lat="45.74417" lon="5.64723">
        <ele>291</ele>
        <time>2022-04-07T08:45:13Z</time>
      </trkpt>
      <trkpt lat="45.74412" lon="5.64744">
        <ele>289</ele>
        <time>2022-04-07T08:45:17Z</time>
      </trkpt>
      <trkpt lat="45.74396" lon="5.6478">
        <ele>288</ele>
        <time>2022-04-07T08:45:24Z</time>
      </trkpt>
      <trkpt lat="45.74371" lon="5.64811">
        <ele>287</ele>
        <time>2022-04-07T08:45:31Z</time>
      </trkpt>
      <trkpt lat="45.74348" lon="5.64864">
        <ele>282</ele>
        <time>2022-04-07T08:45:41Z</time>
      </trkpt>
      <trkpt lat="45.74325" lon="5.64903">
        <ele>276</ele>
        <time>2022-04-07T08:45:50Z</time>
      </trkpt>
      <trkpt lat="45.74308" lon="5.64918">
        <ele>273</ele>
        <time>2022-04-07T08:45:54Z</time>
      </trkpt>
      <trkpt lat="45.74296" lon="5.64937">
        <ele>271</ele>
        <time>2022-04-07T08:45:59Z</time>
      </trkpt>
      <trkpt lat="45.74291" lon="5.64973">
        <ele>265</ele>
        <time>2022-04-07T08:46:05Z</time>
      </trkpt>
      <trkpt lat="45.74278" lon="5.64982">
        <ele>264</ele>
        <time>2022-04-07T08:46:08Z</time>
      </trkpt>
      <trkpt lat="45.74238" lon="5.64983">
        <ele>263</ele>
        <time>2022-04-07T08:46:17Z</time>
      </trkpt>
      <trkpt lat="45.74199" lon="5.64992">
        <ele>260</ele>
        <time>2022-04-07T08:46:26Z</time>
      </trkpt>
      <trkpt lat="45.74214" lon="5.65">
        <ele>259</ele>
        <time>2022-04-07T08:46:30Z</time>
      </trkpt>
      <trkpt lat="45.74254" lon="5.65035">
        <ele>253</ele>
        <time>2022-04-07T08:46:41Z</time>
      </trkpt>
      <trkpt lat="45.74263" lon="5.6505">
        <ele>249</ele>
        <time>2022-04-07T08:46:44Z</time>
      </trkpt>
      <trkpt lat="45.74267" lon="5.65073">
        <ele>244</ele>
        <time>2022-04-07T08:46:48Z</time>
      </trkpt>
      <trkpt lat="45.74273" lon="5.65173">
        <ele>235</ele>
        <time>2022-04-07T08:47:05Z</time>
      </trkpt>
      <trkpt lat="45.74267" lon="5.65255">
        <ele>235</ele>
        <time>2022-04-07T08:47:18Z</time>
      </trkpt>
      <trkpt lat="45.74267" lon="5.65357">
        <ele>233</ele>
        <time>2022-04-07T08:47:35Z</time>
      </trkpt>
      <trkpt lat="45.74259" lon="5.65527">
        <ele>231</ele>
        <time>2022-04-07T08:48:02Z</time>
      </trkpt>
      <trkpt lat="45.74254" lon="5.65556">
        <ele>230</ele>
        <time>2022-04-07T08:48:07Z</time>
      </trkpt>
      <trkpt lat="45.74239" lon="5.65604">
        <ele>230</ele>
        <time>2022-04-07T08:48:16Z</time>
      </trkpt>
      <trkpt lat="45.74231" lon="5.65673">
        <ele>230</ele>
        <time>2022-04-07T08:48:27Z</time>
      </trkpt>
      <trkpt lat="45.74227" lon="5.65686">
        <ele>230</ele>
        <time>2022-04-07T08:48:30Z</time>
      </trkpt>
      <trkpt lat="45.74214" lon="5.65702">
        <ele>230</ele>
        <time>2022-04-07T08:48:34Z</time>
      </trkpt>
      <trkpt lat="45.74174" lon="5.65719">
        <ele>230</ele>
        <time>2022-04-07T08:48:43Z</time>
      </trkpt>
      <trkpt lat="45.74163" lon="5.65727">
        <ele>230</ele>
        <time>2022-04-07T08:48:46Z</time>
      </trkpt>
      <trkpt lat="45.74096" lon="5.65788">
        <ele>229</ele>
        <time>2022-04-07T08:49:05Z</time>
      </trkpt>
      <trkpt lat="45.74083" lon="5.65816">
        <ele>228</ele>
        <time>2022-04-07T08:49:10Z</time>
      </trkpt>
      <trkpt lat="45.74075" lon="5.65845">
        <ele>228</ele>
        <time>2022-04-07T08:49:15Z</time>
      </trkpt>
      <trkpt lat="45.74048" lon="5.65849">
        <ele>228</ele>
        <time>2022-04-07T08:49:22Z</time>
      </trkpt>
      <trkpt lat="45.74053" lon="5.65865">
        <ele>228</ele>
        <time>2022-04-07T08:49:25Z</time>
      </trkpt>
      <trkpt lat="45.74053" lon="5.65884">
        <ele>228</ele>
        <time>2022-04-07T08:49:28Z</time>
      </trkpt>
      <trkpt lat="45.74036" lon="5.65976">
        <ele>229</ele>
        <time>2022-04-07T08:49:43Z</time>
      </trkpt>
      <trkpt lat="45.74035" lon="5.65994">
        <ele>230</ele>
        <time>2022-04-07T08:49:46Z</time>
      </trkpt>
      <trkpt lat="45.74042" lon="5.6604">
        <ele>232</ele>
        <time>2022-04-07T08:49:54Z</time>
      </trkpt>
      <trkpt lat="45.74058" lon="5.6606">
        <ele>232</ele>
        <time>2022-04-07T08:49:59Z</time>
      </trkpt>
      <trkpt lat="45.74117" lon="5.66122">
        <ele>236</ele>
        <time>2022-04-07T08:50:16Z</time>
      </trkpt>
      <trkpt lat="45.74157" lon="5.66154">
        <ele>237</ele>
        <time>2022-04-07T08:50:27Z</time>
      </trkpt>
      <trkpt lat="45.7424" lon="5.66205">
        <ele>239</ele>
        <time>2022-04-07T08:50:48Z</time>
      </trkpt>
      <trkpt lat="45.74273" lon="5.66231">
        <ele>240</ele>
        <time>2022-04-07T08:50:56Z</time>
      </trkpt>
      <trkpt lat="45.74316" lon="5.66255">
        <ele>240</ele>
        <time>2022-04-07T08:51:07Z</time>
      </trkpt>
      <trkpt lat="45.74352" lon="5.66265">
        <ele>240</ele>
        <time>2022-04-07T08:51:16Z</time>
      </trkpt>
      <trkpt lat="45.74388" lon="5.66269">
        <ele>239</ele>
        <time>2022-04-07T08:51:24Z</time>
      </trkpt>
      <trkpt lat="45.74441" lon="5.66267">
        <ele>236</ele>
        <time>2022-04-07T08:51:37Z</time>
      </trkpt>
      <trkpt lat="45.74511" lon="5.66236">
        <ele>231</ele>
        <time>2022-04-07T08:51:54Z</time>
      </trkpt>
      <trkpt lat="45.74538" lon="5.66236">
        <ele>231</ele>
        <time>2022-04-07T08:52:00Z</time>
      </trkpt>
      <trkpt lat="45.74631" lon="5.66245">
        <ele>232</ele>
        <time>2022-04-07T08:52:22Z</time>
      </trkpt>
      <trkpt lat="45.7467" lon="5.66243">
        <ele>231</ele>
        <time>2022-04-07T08:52:31Z</time>
      </trkpt>
      <trkpt lat="45.74687" lon="5.66238">
        <ele>231</ele>
        <time>2022-04-07T08:52:35Z</time>
      </trkpt>
      <trkpt lat="45.74766" lon="5.66205">
        <ele>230</ele>
        <time>2022-04-07T08:52:54Z</time>
      </trkpt>
      <trkpt lat="45.74785" lon="5.66192">
        <ele>230</ele>
        <time>2022-04-07T08:52:59Z</time>
      </trkpt>
      <trkpt lat="45.74839" lon="5.66167">
        <ele>230</ele>
        <time>2022-04-07T08:53:12Z</time>
      </trkpt>
      <trkpt lat="45.74878" lon="5.66145">
        <ele>229</ele>
        <time>2022-04-07T08:53:22Z</time>
      </trkpt>
      <trkpt lat="45.74937" lon="5.66127">
        <ele>229</ele>
        <time>2022-04-07T08:53:36Z</time>
      </trkpt>
      <trkpt lat="45.74961" lon="5.66115">
        <ele>228</ele>
        <time>2022-04-07T08:53:42Z</time>
      </trkpt>
      <trkpt lat="45.74996" lon="5.66089">
        <ele>228</ele>
        <time>2022-04-07T08:53:51Z</time>
      </trkpt>
      <trkpt lat="45.75035" lon="5.66067">
        <ele>228</ele>
        <time>2022-04-07T08:54:01Z</time>
      </trkpt>
      <trkpt lat="45.75083" lon="5.66052">
        <ele>228</ele>
        <time>2022-04-07T08:54:13Z</time>
      </trkpt>
      <trkpt lat="45.75095" lon="5.66053">
        <ele>228</ele>
        <time>2022-04-07T08:54:15Z</time>
      </trkpt>
      <trkpt lat="45.75122" lon="5.66065">
        <ele>229</ele>
        <time>2022-04-07T08:54:22Z</time>
      </trkpt>
      <trkpt lat="45.7533" lon="5.66142">
        <ele>231</ele>
        <time>2022-04-07T08:55:12Z</time>
      </trkpt>
      <trkpt lat="45.75326" lon="5.66173">
        <ele>231</ele>
        <time>2022-04-07T08:55:17Z</time>
      </trkpt>
      <trkpt lat="45.75326" lon="5.66195">
        <ele>231</ele>
        <time>2022-04-07T08:55:21Z</time>
      </trkpt>
      <trkpt lat="45.75315" lon="5.66266">
        <ele>233</ele>
        <time>2022-04-07T08:55:33Z</time>
      </trkpt>
      <trkpt lat="45.75313" lon="5.66301">
        <ele>234</ele>
        <time>2022-04-07T08:55:38Z</time>
      </trkpt>
      <trkpt lat="45.75316" lon="5.66315">
        <ele>235</ele>
        <time>2022-04-07T08:55:41Z</time>
      </trkpt>
      <trkpt lat="45.75323" lon="5.66325">
        <ele>235</ele>
        <time>2022-04-07T08:55:43Z</time>
      </trkpt>
      <trkpt lat="45.75346" lon="5.66336">
        <ele>237</ele>
        <time>2022-04-07T08:55:49Z</time>
      </trkpt>
      <trkpt lat="45.75351" lon="5.66343">
        <ele>238</ele>
        <time>2022-04-07T08:55:50Z</time>
      </trkpt>
      <trkpt lat="45.75345" lon="5.66384">
        <ele>244</ele>
        <time>2022-04-07T08:55:57Z</time>
      </trkpt>
      <trkpt lat="45.75341" lon="5.66395">
        <ele>246</ele>
        <time>2022-04-07T08:55:59Z</time>
      </trkpt>
      <trkpt lat="45.75332" lon="5.66403">
        <ele>248</ele>
        <time>2022-04-07T08:56:02Z</time>
      </trkpt>
      <trkpt lat="45.75271" lon="5.66404">
        <ele>246</ele>
        <time>2022-04-07T08:56:16Z</time>
      </trkpt>
      <trkpt lat="45.75219" lon="5.66417">
        <ele>247</ele>
        <time>2022-04-07T08:56:28Z</time>
      </trkpt>
      <trkpt lat="45.75125" lon="5.66468">
        <ele>250</ele>
        <time>2022-04-07T08:56:52Z</time>
      </trkpt>
      <trkpt lat="45.75111" lon="5.6649">
        <ele>252</ele>
        <time>2022-04-07T08:56:57Z</time>
      </trkpt>
      <trkpt lat="45.75108" lon="5.66503">
        <ele>253</ele>
        <time>2022-04-07T08:56:59Z</time>
      </trkpt>
      <trkpt lat="45.75121" lon="5.66563">
        <ele>256</ele>
        <time>2022-04-07T08:57:09Z</time>
      </trkpt>
      <trkpt lat="45.75132" lon="5.66638">
        <ele>259</ele>
        <time>2022-04-07T08:57:22Z</time>
      </trkpt>
      <trkpt lat="45.75141" lon="5.66778">
        <ele>267</ele>
        <time>2022-04-07T08:57:45Z</time>
      </trkpt>
      <trkpt lat="45.75153" lon="5.66811">
        <ele>269</ele>
        <time>2022-04-07T08:57:51Z</time>
      </trkpt>
      <trkpt lat="45.75155" lon="5.66824">
        <ele>270</ele>
        <time>2022-04-07T08:57:53Z</time>
      </trkpt>
      <trkpt lat="45.75168" lon="5.66849">
        <ele>272</ele>
        <time>2022-04-07T08:57:58Z</time>
      </trkpt>
      <trkpt lat="45.75207" lon="5.66886">
        <ele>272</ele>
        <time>2022-04-07T08:58:09Z</time>
      </trkpt>
      <trkpt lat="45.75219" lon="5.66905">
        <ele>272</ele>
        <time>2022-04-07T08:58:13Z</time>
      </trkpt>
      <trkpt lat="45.75226" lon="5.66939">
        <ele>275</ele>
        <time>2022-04-07T08:58:19Z</time>
      </trkpt>
      <trkpt lat="45.75228" lon="5.66996">
        <ele>281</ele>
        <time>2022-04-07T08:58:28Z</time>
      </trkpt>
      <trkpt lat="45.75233" lon="5.67042">
        <ele>283</ele>
        <time>2022-04-07T08:58:36Z</time>
      </trkpt>
      <trkpt lat="45.75242" lon="5.67079">
        <ele>285</ele>
        <time>2022-04-07T08:58:42Z</time>
      </trkpt>
      <trkpt lat="45.75295" lon="5.67165">
        <ele>288</ele>
        <time>2022-04-07T08:59:01Z</time>
      </trkpt>
      <trkpt lat="45.75303" lon="5.67195">
        <ele>289</ele>
        <time>2022-04-07T08:59:06Z</time>
      </trkpt>
      <trkpt lat="45.75303" lon="5.67251">
        <ele>293</ele>
        <time>2022-04-07T08:59:15Z</time>
      </trkpt>
      <trkpt lat="45.75295" lon="5.67307">
        <ele>296</ele>
        <time>2022-04-07T08:59:24Z</time>
      </trkpt>
      <trkpt lat="45.75288" lon="5.67399">
        <ele>297</ele>
        <time>2022-04-07T08:59:39Z</time>
      </trkpt>
      <trkpt lat="45.75294" lon="5.67449">
        <ele>295</ele>
        <time>2022-04-07T08:59:48Z</time>
      </trkpt>
      <trkpt lat="45.7529" lon="5.6748">
        <ele>293</ele>
        <time>2022-04-07T08:59:53Z</time>
      </trkpt>
      <trkpt lat="45.75274" lon="5.67525">
        <ele>291</ele>
        <time>2022-04-07T09:00:01Z</time>
      </trkpt>
      <trkpt lat="45.75319" lon="5.67701">
        <ele>288</ele>
        <time>2022-04-07T09:00:32Z</time>
      </trkpt>
      <trkpt lat="45.75328" lon="5.67728">
        <ele>288</ele>
        <time>2022-04-07T09:00:36Z</time>
      </trkpt>
      <trkpt lat="45.75338" lon="5.67747">
        <ele>289</ele>
        <time>2022-04-07T09:00:40Z</time>
      </trkpt>
      <trkpt lat="45.75409" lon="5.67853">
        <ele>290</ele>
        <time>2022-04-07T09:01:04Z</time>
      </trkpt>
      <trkpt lat="45.75473" lon="5.6793">
        <ele>290</ele>
        <time>2022-04-07T09:01:24Z</time>
      </trkpt>
      <trkpt lat="45.75493" lon="5.67961">
        <ele>290</ele>
        <time>2022-04-07T09:01:31Z</time>
      </trkpt>
      <trkpt lat="45.75498" lon="5.6798">
        <ele>290</ele>
        <time>2022-04-07T09:01:34Z</time>
      </trkpt>
      <trkpt lat="45.75494" lon="5.68016">
        <ele>290</ele>
        <time>2022-04-07T09:01:40Z</time>
      </trkpt>
      <trkpt lat="45.75478" lon="5.68044">
        <ele>291</ele>
        <time>2022-04-07T09:01:46Z</time>
      </trkpt>
      <trkpt lat="45.7547" lon="5.6805">
        <ele>291</ele>
        <time>2022-04-07T09:01:48Z</time>
      </trkpt>
      <trkpt lat="45.75469" lon="5.68062">
        <ele>291</ele>
        <time>2022-04-07T09:01:50Z</time>
      </trkpt>
      <trkpt lat="45.75477" lon="5.68072">
        <ele>291</ele>
        <time>2022-04-07T09:01:52Z</time>
      </trkpt>
      <trkpt lat="45.75486" lon="5.68077">
        <ele>291</ele>
        <time>2022-04-07T09:01:55Z</time>
      </trkpt>
      <trkpt lat="45.75501" lon="5.68091">
        <ele>292</ele>
        <time>2022-04-07T09:01:59Z</time>
      </trkpt>
      <trkpt lat="45.75516" lon="5.68099">
        <ele>291</ele>
        <time>2022-04-07T09:02:03Z</time>
      </trkpt>
      <trkpt lat="45.75569" lon="5.68145">
        <ele>289</ele>
        <time>2022-04-07T09:02:17Z</time>
      </trkpt>
      <trkpt lat="45.75602" lon="5.68166">
        <ele>289</ele>
        <time>2022-04-07T09:02:25Z</time>
      </trkpt>
      <trkpt lat="45.75575" lon="5.68328">
        <ele>287</ele>
        <time>2022-04-07T09:02:53Z</time>
      </trkpt>
      <trkpt lat="45.75573" lon="5.68358">
        <ele>288</ele>
        <time>2022-04-07T09:02:58Z</time>
      </trkpt>
      <trkpt lat="45.75569" lon="5.68364">
        <ele>288</ele>
        <time>2022-04-07T09:02:59Z</time>
      </trkpt>
      <trkpt lat="45.7557" lon="5.68372">
        <ele>288</ele>
        <time>2022-04-07T09:03:00Z</time>
      </trkpt>
      <trkpt lat="45.75576" lon="5.68381">
        <ele>287</ele>
        <time>2022-04-07T09:03:02Z</time>
      </trkpt>
      <trkpt lat="45.75607" lon="5.6846">
        <ele>285</ele>
        <time>2022-04-07T09:03:17Z</time>
      </trkpt>
      <trkpt lat="45.75659" lon="5.68623">
        <ele>284</ele>
        <time>2022-04-07T09:03:46Z</time>
      </trkpt>
      <trkpt lat="45.75823" lon="5.68625">
        <ele>281</ele>
        <time>2022-04-07T09:04:24Z</time>
      </trkpt>
      <trkpt lat="45.7582" lon="5.68678">
        <ele>281</ele>
        <time>2022-04-07T09:04:33Z</time>
      </trkpt>
      <trkpt lat="45.75806" lon="5.68778">
        <ele>279</ele>
        <time>2022-04-07T09:04:50Z</time>
      </trkpt>
      <trkpt lat="45.75794" lon="5.68816">
        <ele>279</ele>
        <time>2022-04-07T09:04:57Z</time>
      </trkpt>
      <trkpt lat="45.75773" lon="5.68863">
        <ele>280</ele>
        <time>2022-04-07T09:05:06Z</time>
      </trkpt>
      <trkpt lat="45.7578" lon="5.68876">
        <ele>280</ele>
        <time>2022-04-07T09:05:08Z</time>
      </trkpt>
      <trkpt lat="45.75781" lon="5.68884">
        <ele>280</ele>
        <time>2022-04-07T09:05:10Z</time>
      </trkpt>
      <trkpt lat="45.75777" lon="5.68902">
        <ele>280</ele>
        <time>2022-04-07T09:05:13Z</time>
      </trkpt>
      <trkpt lat="45.75799" lon="5.68908">
        <ele>280</ele>
        <time>2022-04-07T09:05:18Z</time>
      </trkpt>
      <trkpt lat="45.75813" lon="5.68909">
        <ele>280</ele>
        <time>2022-04-07T09:05:21Z</time>
      </trkpt>
      <trkpt lat="45.758" lon="5.68936">
        <ele>281</ele>
        <time>2022-04-07T09:05:27Z</time>
      </trkpt>
    </trkseg>
  </trk>
</gpx>